Time;durP1;ratioP1;P1;durP2;ratioP2;P2;SDS_P1;SDS_P2;PMS_P1;PMS_P2;Temp;Humidity;BMP_temperature;BMP_pressure;BME280_temperature;BME280_humidity;BME280_pressure;Samples;Min_cycle;Max_cycle;Signal;HPM_P1;HPM_P2
2022/12/01 00:02:12;;;;;;;26.20;16.13;;;;;;;2.44;100.00;97211.66;5032592;28;20230;-67
2022/12/01 00:04:37;;;;;;;23.80;16.33;;;;;;;2.54;100.00;97214.06;5032158;28;20210;-67
2022/12/01 00:07:03;;;;;;;26.03;17.30;;;;;;;2.38;100.00;97214.91;5032282;28;20321;-67
2022/12/01 00:12:12;;;;;;;27.70;17.63;;;;;;;2.34;100.00;97205.88;5032723;28;20190;-66
2022/12/01 00:14:37;;;;;;;26.87;17.23;;;;;;;2.17;100.00;97222.38;5032371;28;20191;-66
2022/12/01 00:17:04;;;;;;;25.27;15.90;;;;;;;2.45;100.00;97203.72;5031697;28;20183;-66
2022/12/01 00:19:29;;;;;;;28.00;18.03;;;;;;;2.40;100.00;97202.59;5032086;28;20224;-66
2022/12/01 00:21:54;;;;;;;25.57;16.97;;;;;;;2.49;100.00;97207.59;5032493;28;20606;-66
2022/12/01 00:24:22;;;;;;;26.80;17.43;;;;;;;2.51;100.00;97213.41;5032635;28;20714;-66
2022/12/01 00:26:47;;;;;;;27.60;16.97;;;;;;;2.48;100.00;97210.34;5032440;28;20262;-67
2022/12/01 00:29:13;;;;;;;25.67;16.53;;;;;;;2.34;100.00;97206.66;5032224;28;20269;-66
2022/12/01 00:31:38;;;;;;;26.40;17.17;;;;;;;2.36;100.00;97204.72;5031795;28;20201;-67
2022/12/01 00:34:03;;;;;;;24.33;16.40;;;;;;;2.36;100.00;97201.31;5031297;28;20191;-67
2022/12/01 00:36:29;;;;;;;27.60;17.23;;;;;;;2.42;100.00;97201.47;5030566;28;20571;-66
2022/12/01 00:38:55;;;;;;;28.27;16.83;;;;;;;2.31;100.00;97203.59;5031528;28;20550;-67
2022/12/01 00:41:23;;;;;;;26.87;16.97;;;;;;;2.40;100.00;97212.94;5031985;28;20538;-67
2022/12/01 00:43:49;;;;;;;26.83;17.77;;;;;;;2.37;100.00;97208.94;5031671;28;20273;-67
2022/12/01 00:46:14;;;;;;;26.73;16.73;;;;;;;2.27;100.00;97223.81;5031294;28;20305;-67
2022/12/01 00:48:40;;;;;;;23.70;16.57;;;;;;;2.43;100.00;97207.47;5013979;28;20186;-67
2022/12/01 00:51:05;;;;;;;24.07;17.10;;;;;;;2.37;100.00;97218.47;5031808;28;20187;-67
2022/12/01 00:53:30;;;;;;;27.87;17.67;;;;;;;2.20;100.00;97220.25;5031786;28;20278;-67
2022/12/01 00:55:56;;;;;;;27.30;17.07;;;;;;;2.28;100.00;97217.69;5031915;28;20186;-67
2022/12/01 00:58:22;;;;;;;24.80;16.40;;;;;;;2.40;100.00;97212.94;5031402;28;20261;-66
2022/12/01 01:00:48;;;;;;;27.17;18.70;;;;;;;2.42;100.00;97214.41;5031044;28;20218;-67
2022/12/01 01:03:14;;;;;;;27.23;18.17;;;;;;;2.35;100.00;97205.69;5031636;28;20269;-67
2022/12/01 01:05:41;;;;;;;28.40;17.47;;;;;;;2.30;100.00;97218.31;5031682;28;20285;-66
2022/12/01 01:08:11;;;;;;;25.10;17.03;;;;;;;2.43;100.00;97208.25;5031773;28;20183;-67
2022/12/01 01:10:41;;;;;;;25.37;17.30;;;;;;;2.51;100.00;97213.41;5031666;28;20179;-68
2022/12/01 01:13:08;;;;;;;28.77;19.40;;;;;;;2.44;100.00;97209.06;5031855;28;20178;-67
2022/12/01 01:15:34;;;;;;;27.50;17.93;;;;;;;2.34;100.00;97223.97;5031686;28;20689;-67
2022/12/01 01:18:00;;;;;;;26.57;17.17;;;;;;;2.40;100.00;97212.94;5031736;28;20232;-67
2022/12/01 01:20:25;;;;;;;27.53;17.87;;;;;;;2.40;100.00;97218.94;5031174;28;20584;-67
2022/12/01 01:22:51;;;;;;;26.80;17.33;;;;;;;2.28;100.00;97224.63;5031509;28;20266;-67
2022/12/01 01:25:16;;;;;;;26.67;18.67;;;;;;;2.42;100.00;97219.59;5013660;28;20187;-67
2022/12/01 01:27:41;;;;;;;29.60;18.10;;;;;;;2.29;100.00;97228.81;5031619;28;20604;-67
2022/12/01 01:30:07;;;;;;;29.03;18.07;;;;;;;2.30;100.00;97230.41;5031699;28;20187;-66
2022/12/01 01:32:33;;;;;;;25.63;18.13;;;;;;;2.43;100.00;97225.56;5031466;28;20231;-66
2022/12/01 01:34:58;;;;;;;28.43;17.37;;;;;;;2.14;100.00;97233.84;5031573;28;20183;-66
2022/12/01 01:37:23;;;;;;;30.80;19.30;;;;;;;2.15;100.00;97239.81;5030510;28;20183;-66
2022/12/01 01:39:49;;;;;;;26.63;18.27;;;;;;;2.16;100.00;97239.66;5031721;28;20540;-66
2022/12/01 01:42:18;;;;;;;29.10;18.73;;;;;;;2.13;100.00;97234.00;5031225;28;20186;-66
2022/12/01 01:44:53;;;;;;;26.67;19.17;;;;;;;2.19;100.00;97226.41;5031416;28;20265;-66
2022/12/01 01:47:35;;;;;;;30.07;18.67;;;;;;;2.24;100.00;97229.28;5031018;28;20795;-66
2022/12/01 01:50:07;;;;;;;28.60;17.77;;;;;;;2.09;100.00;97224.00;5031432;28;20179;-66
2022/12/01 01:52:37;;;;;;;26.37;18.30;;;;;;;2.16;100.00;97231.91;5031021;28;20167;-67
2022/12/01 01:55:03;;;;;;;28.57;18.50;;;;;;;2.13;100.00;97227.03;5031058;28;20187;-66
2022/12/01 01:57:31;;;;;;;28.10;18.97;;;;;;;2.25;100.00;97230.91;5033064;28;20289;-66
2022/12/01 02:00:03;;;;;;;28.90;18.63;;;;;;;2.36;100.00;97232.34;5034419;28;20189;-66
2022/12/01 02:02:29;;;;;;;28.40;17.83;;;;;;;2.26;100.00;97236.91;5034267;28;20175;-66
2022/12/01 02:05:00;;;;;;;26.97;17.87;;;;;;;2.18;100.00;97231.72;5034516;28;20182;-67
2022/12/01 02:07:25;;;;;;;27.03;17.67;;;;;;;2.19;100.00;97228.97;5034715;28;20364;-66
2022/12/01 02:09:52;;;;;;;26.77;17.33;;;;;;;2.26;100.00;97224.78;5034508;28;20273;-66
2022/12/01 02:12:56;;;;;;;25.60;17.73;;;;;;;2.15;100.00;97232.06;5034882;28;20508;-66
2022/12/01 02:15:33;;;;;;;27.70;17.50;;;;;;;2.22;100.00;97228.66;5034103;28;20228;-66
2022/12/01 02:18:30;;;;;;;27.10;17.50;;;;;;;2.23;100.00;97219.91;5034419;28;20336;-66
2022/12/01 02:21:09;;;;;;;30.30;18.17;;;;;;;2.34;100.00;97214.41;5034408;28;20197;-67
2022/12/01 02:23:49;;;;;;;26.70;17.77;;;;;;;2.26;100.00;97214.44;5024769;28;20190;-66
2022/12/01 02:27:04;;;;;;;27.97;17.77;;;;;;;2.26;100.00;97218.78;5034505;28;20265;-67
2022/12/01 02:30:00;;;;;;;26.40;16.90;;;;;;;2.22;100.00;97223.50;4937251;29;20252;-67
2022/12/01 02:32:44;;;;;;;26.60;17.40;;;;;;;2.25;100.00;97219.75;5031204;28;20194;-67
2022/12/01 02:35:15;;;;;;;29.13;18.20;;;;;;;2.06;100.00;97215.75;5034311;28;20212;-67
2022/12/01 02:37:40;;;;;;;28.97;19.13;;;;;;;2.10;100.00;97211.88;5033183;28;20191;-68
2022/12/01 02:40:14;;;;;;;24.67;16.97;;;;;;;2.14;100.00;97220.91;5034524;28;20179;-67
2022/12/01 02:42:58;;;;;;;24.60;17.47;;;;;;;2.04;100.00;97213.34;5033960;28;20177;-66
2022/12/01 02:45:36;;;;;;;29.60;18.47;;;;;;;1.97;100.00;97224.47;5034089;28;20179;-66
2022/12/01 02:48:04;;;;;;;29.47;18.10;;;;;;;1.96;100.00;97218.50;5034149;28;20190;-66
2022/12/01 02:50:32;;;;;;;27.13;18.00;;;;;;;2.06;100.00;97216.53;5034061;28;20191;-66
2022/12/01 02:53:00;;;;;;;29.57;17.93;;;;;;;2.06;100.00;97218.34;5033801;28;20194;-67
2022/12/01 02:55:25;;;;;;;27.87;18.40;;;;;;;2.07;100.00;97214.75;5033927;28;20178;-66
2022/12/01 02:57:50;;;;;;;30.43;18.47;;;;;;;2.08;100.00;97211.22;5033258;28;20261;-67
2022/12/01 03:00:17;;;;;;;28.63;18.00;;;;;;;2.02;100.00;97219.63;5033164;28;20710;-66
2022/12/01 03:03:11;;;;;;;27.73;17.47;;;;;;;2.10;100.00;97214.47;5033622;28;20179;-67
2022/12/01 03:05:49;;;;;;;25.90;18.00;;;;;;;2.02;100.00;97217.03;5034136;28;20194;-67
2022/12/01 03:08:25;;;;;;;26.03;17.27;;;;;;;2.02;100.00;97219.63;5033071;28;20563;-67
2022/12/01 03:10:53;;;;;;;30.00;18.80;;;;;;;2.06;100.00;97213.19;5034071;28;20174;-67
2022/12/01 03:13:44;;;;;;;24.97;17.10;;;;;;;2.00;100.00;97217.22;5033396;28;20252;-67
2022/12/01 03:16:13;;;;;;;26.37;17.33;;;;;;;1.97;100.00;97207.19;5033680;28;20541;-67
2022/12/01 03:18:57;;;;;;;27.73;17.47;;;;;;;2.08;100.00;97206.03;5017923;28;20194;-67
2022/12/01 03:21:31;;;;;;;28.53;18.37;;;;;;;2.05;100.00;97198.63;5033516;28;20564;-68
2022/12/01 03:24:13;;;;;;;28.37;18.23;;;;;;;2.00;100.00;97213.81;5033856;28;20754;-68
2022/12/01 03:26:43;;;;;;;27.80;17.93;;;;;;;1.95;100.00;97206.53;5033619;28;20174;-68
2022/12/01 03:29:17;;;;;;;28.43;18.70;;;;;;;1.83;100.00;97212.22;5033643;28;20179;-68
2022/12/01 03:31:47;;;;;;;27.13;17.20;;;;;;;2.01;100.00;97208.47;5033358;28;20189;-68
2022/12/01 03:34:31;;;;;;;28.73;17.83;;;;;;;1.94;100.00;97204.13;5033213;28;20222;-67
2022/12/01 03:37:19;;;;;;;27.53;18.97;;;;;;;2.07;100.00;97201.84;5032346;28;20191;-67
2022/12/01 03:39:48;;;;;;;28.60;17.63;;;;;;;1.87;100.00;97203.97;5033428;28;20194;-67
2022/12/01 03:42:37;;;;;;;27.53;17.43;;;;;;;1.97;100.00;97203.78;5032922;28;20191;-67
2022/12/01 03:45:08;;;;;;;28.93;17.60;;;;;;;2.20;100.00;97209.09;5032943;28;20691;-67
2022/12/01 03:47:36;;;;;;;26.93;18.67;;;;;;;2.21;100.00;97215.91;5033224;28;20191;-67
2022/12/01 03:50:04;;;;;;;26.80;17.53;;;;;;;2.03;100.00;97208.31;5033384;28;20296;-67
2022/12/01 03:52:39;;;;;;;28.13;18.23;;;;;;;1.84;100.00;97209.44;5032361;28;20717;-67
2022/12/01 03:55:13;;;;;;;28.37;17.80;;;;;;;1.63;100.00;97214.28;5032527;28;20681;-67
2022/12/01 03:57:45;;;;;;;30.37;21.10;;;;;;;1.75;100.00;97212.19;5032068;28;20666;-66
2022/12/01 04:00:12;;;;;;;26.87;18.10;;;;;;;1.72;100.00;97209.94;5032684;28;20185;-68
2022/12/01 04:02:39;;;;;;;28.50;18.33;;;;;;;1.86;100.00;97214.44;5032559;28;20457;-66
2022/12/01 04:05:05;;;;;;;28.07;18.53;;;;;;;1.85;100.00;97213.66;5032529;28;20190;-66
2022/12/01 04:07:30;;;;;;;29.70;18.47;;;;;;;1.89;100.00;97214.16;5032508;28;20278;-66
2022/12/01 04:09:56;;;;;;;28.40;18.30;;;;;;;1.94;100.00;97217.06;5014973;28;20206;-66
2022/12/01 04:12:32;;;;;;;32.50;19.07;;;;;;;1.79;100.00;97213.47;5032656;28;20206;-66
2022/12/01 04:15:09;;;;;;;29.83;18.33;;;;;;;1.98;100.00;97216.56;5032700;28;20244;-66
2022/12/01 04:17:35;;;;;;;28.90;18.60;;;;;;;1.93;100.00;97221.41;5032401;28;20163;-67
2022/12/01 04:20:03;;;;;;;29.23;18.47;;;;;;;2.02;100.00;97212.69;5031246;28;20197;-67
2022/12/01 04:22:28;;;;;;;27.00;18.43;;;;;;;1.89;100.00;97214.16;5032569;28;20232;-66
2022/12/01 04:24:54;;;;;;;27.80;18.17;;;;;;;1.89;100.00;97222.72;5032423;28;20647;-67
2022/12/01 04:27:19;;;;;;;28.20;18.50;;;;;;;1.98;100.00;97208.81;5032696;28;20183;-67
2022/12/01 04:29:45;;;;;;;27.03;18.70;;;;;;;2.14;100.00;97220.91;5032827;28;20627;-67
2022/12/01 04:32:11;;;;;;;28.47;19.27;;;;;;;2.14;100.00;97213.16;5032932;28;20194;-66
2022/12/01 04:34:36;;;;;;;27.60;17.83;;;;;;;1.84;100.00;97206.06;5032001;28;20662;-67
2022/12/01 04:37:03;;;;;;;27.67;18.80;;;;;;;1.77;100.00;97221.41;5031644;28;20186;-67
2022/12/01 04:39:28;;;;;;;29.60;18.47;;;;;;;1.75;100.00;97213.00;5032547;28;20302;-67
2022/12/01 04:41:54;;;;;;;32.10;19.70;;;;;;;1.83;100.00;97213.00;5032647;28;20269;-67
2022/12/01 04:44:19;;;;;;;27.50;18.73;;;;;;;1.73;100.00;97221.91;5032219;28;20182;-67
2022/12/01 04:46:44;;;;;;;29.87;18.93;;;;;;;1.95;100.00;97219.44;5032315;28;20182;-67
2022/12/01 04:49:10;;;;;;;30.97;19.20;;;;;;;1.88;100.00;97217.69;5032677;28;20241;-66
2022/12/01 04:51:35;;;;;;;27.43;18.23;;;;;;;2.14;100.00;97220.91;5032749;28;20201;-66
2022/12/01 04:54:01;;;;;;;28.10;17.90;;;;;;;2.10;100.00;97224.81;5032231;28;20183;-66
2022/12/01 04:56:27;;;;;;;29.50;18.40;;;;;;;1.94;100.00;97225.63;5031815;28;20218;-66
2022/12/01 04:58:52;;;;;;;26.80;18.30;;;;;;;1.99;100.00;97220.75;5032287;28;20249;-66
2022/12/01 05:01:18;;;;;;;26.23;17.63;;;;;;;1.86;100.00;97223.00;5031445;28;20234;-66
2022/12/01 05:03:48;;;;;;;31.17;19.30;;;;;;;1.96;100.00;97217.69;5032359;28;20186;-66
2022/12/01 05:06:16;;;;;;;28.37;18.10;;;;;;;1.88;100.00;97221.09;5014741;28;20189;-66
2022/12/01 05:08:41;;;;;;;27.27;18.17;;;;;;;1.75;100.00;97225.91;5032317;28;20186;-68
2022/12/01 05:11:09;;;;;;;31.07;17.73;;;;;;;1.80;100.00;97223.66;5032475;28;20241;-67
2022/12/01 05:13:41;;;;;;;26.20;17.40;;;;;;;1.90;100.00;97229.47;5032211;28;20178;-67
2022/12/01 05:16:12;;;;;;;29.30;18.57;;;;;;;2.00;100.00;97219.81;5032568;28;20199;-68
2022/12/01 05:18:38;;;;;;;26.47;17.37;;;;;;;2.05;100.00;97224.47;5031806;28;20198;-68
2022/12/01 05:21:06;;;;;;;33.53;18.17;;;;;;;1.93;100.00;97223.19;5032279;28;20612;-68
2022/12/01 05:23:33;;;;;;;27.87;18.53;;;;;;;1.98;100.00;97223.50;5032430;28;20178;-68
2022/12/01 05:26:00;;;;;;;30.87;19.63;;;;;;;1.96;100.00;97223.66;5014415;28;20610;-66
2022/12/01 05:28:26;;;;;;;30.03;19.27;;;;;;;1.83;100.00;97223.34;5032268;28;20785;-66
2022/12/01 05:30:53;;;;;;;29.60;18.93;;;;;;;1.83;100.00;97222.53;5031455;28;20201;-66
2022/12/01 05:33:19;;;;;;;28.43;18.33;;;;;;;1.93;100.00;97230.94;5035765;28;20183;-67
2022/12/01 05:35:46;;;;;;;29.70;19.77;;;;;;;1.70;100.00;97235.94;5030220;28;20262;-67
2022/12/01 05:38:11;;;;;;;30.47;18.97;;;;;;;1.61;100.00;97227.38;5028971;28;20251;-67
2022/12/01 05:40:37;;;;;;;31.20;19.07;;;;;;;1.54;100.00;97235.91;5035885;28;20178;-67
2022/12/01 05:43:03;;;;;;;33.00;20.27;;;;;;;1.52;100.00;97238.63;5035630;28;20191;-67
2022/12/01 05:45:28;;;;;;;35.37;20.80;;;;;;;1.58;100.00;97237.19;5036029;28;20507;-67
2022/12/01 05:47:55;;;;;;;32.80;19.90;;;;;;;1.45;100.00;97231.69;5035713;28;20206;-67
2022/12/01 05:50:21;;;;;;;34.17;20.90;;;;;;;1.47;100.00;97227.16;5035427;28;20590;-67
2022/12/01 05:52:46;;;;;;;34.27;21.10;;;;;;;1.49;100.00;97230.41;5035316;28;20224;-67
2022/12/01 05:55:11;;;;;;;34.30;21.87;;;;;;;1.53;100.00;97229.94;5035078;28;20186;-67
2022/12/01 05:57:37;;;;;;;38.23;20.83;;;;;;;1.68;100.00;97232.69;5035034;28;20171;-67
2022/12/01 06:00:04;;;;;;;32.93;20.67;;;;;;;1.57;100.00;97230.41;5035435;28;20597;-67
2022/12/01 06:02:30;;;;;;;34.57;21.00;;;;;;;1.60;100.00;97233.50;5035153;28;20174;-67
2022/12/01 06:04:55;;;;;;;35.00;21.40;;;;;;;1.55;100.00;97240.91;5035271;28;20214;-67
2022/12/01 06:07:22;;;;;;;30.60;20.60;;;;;;;1.56;100.00;97237.34;5034953;28;20547;-67
2022/12/01 06:09:48;;;;;;;35.30;21.10;;;;;;;1.64;100.00;97239.16;5035297;28;20277;-67
2022/12/01 06:12:13;;;;;;;32.83;20.00;;;;;;;1.78;100.00;97243.69;5035736;28;20269;-67
2022/12/01 06:14:38;;;;;;;34.40;20.83;;;;;;;1.81;100.00;97245.94;5035446;28;20241;-67
2022/12/01 06:17:04;;;;;;;40.73;23.37;;;;;;;1.88;100.00;97246.94;5035148;28;20205;-67
2022/12/01 06:19:30;;;;;;;34.23;20.83;;;;;;;1.77;100.00;97238.69;5034952;28;20233;-67
2022/12/01 06:21:56;;;;;;;33.47;21.73;;;;;;;1.74;100.00;97239.00;5035283;28;20193;-66
2022/12/01 06:24:21;;;;;;;31.23;20.20;;;;;;;2.02;100.00;97240.28;5034920;28;20187;-66
2022/12/01 06:26:46;;;;;;;33.83;20.80;;;;;;;1.92;100.00;97240.47;5035185;28;20182;-66
2022/12/01 06:29:12;;;;;;;37.90;22.47;;;;;;;1.90;100.00;97233.81;5035069;28;20186;-66
2022/12/01 06:31:37;;;;;;;35.43;22.07;;;;;;;1.96;100.00;97244.34;5034984;28;20187;-66
2022/12/01 06:34:02;;;;;;;35.03;22.87;;;;;;;1.84;100.00;97247.41;5000756;28;20713;-66
2022/12/01 06:36:28;;;;;;;34.63;22.87;;;;;;;1.75;100.00;97241.41;5034167;28;20214;-66
2022/12/01 06:38:53;;;;;;;33.57;21.77;;;;;;;2.00;100.00;97250.00;5034636;28;20202;-66
2022/12/01 06:41:18;;;;;;;33.90;21.90;;;;;;;1.82;100.00;97254.50;5034874;28;20193;-66
2022/12/01 06:43:43;;;;;;;39.37;24.17;;;;;;;1.78;100.00;97248.88;5033975;28;20298;-66
2022/12/01 06:46:09;;;;;;;37.17;22.57;;;;;;;1.84;100.00;97255.94;5034933;28;20218;-66
2022/12/01 06:48:34;;;;;;;35.80;21.93;;;;;;;1.85;100.00;97257.56;5034455;28;20589;-67
2022/12/01 06:51:01;;;;;;;35.87;22.50;;;;;;;1.65;100.00;97248.53;5024027;28;20184;-66
2022/12/01 06:53:27;;;;;;;32.23;20.67;;;;;;;1.62;100.00;97256.56;5028710;28;20206;-66
2022/12/01 06:55:53;;;;;;;36.40;22.33;;;;;;;1.65;100.00;97264.00;5034047;28;20206;-64
2022/12/01 06:58:18;;;;;;;35.47;23.07;;;;;;;1.87;100.00;97267.75;5034343;28;20663;-66
2022/12/01 07:00:44;;;;;;;37.60;22.77;;;;;;;1.80;100.00;97265.00;5034195;28;20230;-66
2022/12/01 07:03:09;;;;;;;37.30;24.10;;;;;;;1.78;100.00;97266.16;5034638;28;20194;-66
2022/12/01 07:05:35;;;;;;;36.17;22.93;;;;;;;1.80;100.00;97267.59;5034393;28;20259;-67
2022/12/01 07:08:01;;;;;;;35.33;23.07;;;;;;;1.74;100.00;97270.81;5034413;28;20256;-66
2022/12/01 07:10:27;;;;;;;34.10;21.83;;;;;;;1.59;100.00;97270.63;5034563;28;20236;-67
2022/12/01 07:12:55;;;;;;;34.00;22.47;;;;;;;1.52;100.00;97267.06;5034541;28;20225;-67
2022/12/01 07:15:22;;;;;;;34.77;22.80;;;;;;;1.63;100.00;97274.50;5033632;28;20237;-68
2022/12/01 07:17:47;;;;;;;36.03;22.47;;;;;;;1.63;100.00;97273.69;5034182;28;20542;-67
2022/12/01 07:20:13;;;;;;;36.47;23.77;;;;;;;1.67;100.00;97275.00;5034104;28;20225;-67
2022/12/01 07:22:38;;;;;;;35.97;23.03;;;;;;;1.71;100.00;97278.88;5033657;28;20183;-68
2022/12/01 07:25:05;;;;;;;39.43;25.10;;;;;;;1.61;100.00;97271.28;5033314;28;20190;-67
2022/12/01 07:27:31;;;;;;;38.50;24.27;;;;;;;1.44;100.00;97273.97;5033936;28;20175;-67
2022/12/01 07:29:56;;;;;;;42.77;25.03;;;;;;;1.41;100.00;97274.28;5034141;28;20600;-67
2022/12/01 07:32:21;;;;;;;40.67;25.40;;;;;;;1.41;100.00;97276.88;5033432;28;20194;-67
2022/12/01 07:34:47;;;;;;;43.00;23.77;;;;;;;1.70;100.00;97276.44;5032558;28;20186;-68
2022/12/01 07:37:12;;;;;;;43.07;25.37;;;;;;;1.69;100.00;97278.22;5034025;28;20179;-67
2022/12/01 07:39:38;;;;;;;36.57;22.87;;;;;;;1.77;100.00;97278.25;5034232;28;20648;-67
2022/12/01 07:42:03;;;;;;;39.87;23.67;;;;;;;1.84;100.00;97273.25;5033645;28;20190;-67
2022/12/01 07:44:28;;;;;;;40.87;23.30;;;;;;;1.63;100.00;97264.16;5031870;28;20186;-67
2022/12/01 07:46:54;;;;;;;38.00;23.10;;;;;;;1.57;100.00;97276.91;5032517;28;20664;-65
2022/12/01 07:49:19;;;;;;;39.40;24.73;;;;;;;1.65;100.00;97272.56;5005767;28;20189;-66
2022/12/01 07:51:45;;;;;;;38.17;23.90;;;;;;;1.79;100.00;97284.06;5032905;28;20187;-68
2022/12/01 07:54:13;;;;;;;37.57;23.33;;;;;;;1.91;100.00;97284.56;5029537;28;20193;-67
2022/12/01 07:56:38;;;;;;;35.33;22.70;;;;;;;1.90;100.00;97277.75;5031672;28;20674;-67
2022/12/01 07:59:04;;;;;;;39.77;22.10;;;;;;;1.87;100.00;97276.31;5033463;28;20215;-68
2022/12/01 08:01:30;;;;;;;36.60;23.67;;;;;;;1.77;100.00;97282.59;5032542;28;20230;-68
2022/12/01 08:03:57;;;;;;;37.17;22.87;;;;;;;1.77;100.00;97280.03;5032407;28;20186;-67
2022/12/01 08:06:24;;;;;;;36.97;23.20;;;;;;;1.70;100.00;97284.19;5033029;28;20190;-68
2022/12/01 08:08:50;;;;;;;34.43;22.47;;;;;;;1.54;100.00;97284.97;5033347;28;20179;-67
2022/12/01 08:11:21;;;;;;;34.43;21.73;;;;;;;1.60;100.00;97292.91;5033264;28;20191;-68
2022/12/01 08:13:47;;;;;;;36.67;23.37;;;;;;;1.73;100.00;97286.50;5015639;28;20202;-68
2022/12/01 08:16:15;;;;;;;37.93;22.83;;;;;;;1.73;100.00;97294.25;5033079;28;20206;-68
2022/12/01 08:18:41;;;;;;;36.23;22.90;;;;;;;1.65;100.00;97295.84;5021065;28;20197;-68
2022/12/01 08:21:09;;;;;;;38.80;23.03;;;;;;;1.73;100.00;97299.41;5013802;28;20179;-69
2022/12/01 08:23:34;;;;;;;35.83;22.17;;;;;;;1.82;100.00;97303.63;5021468;28;20221;-68
2022/12/01 08:26:06;;;;;;;33.77;22.47;;;;;;;1.80;100.00;97298.59;5032762;28;20536;-68
2022/12/01 08:28:33;;;;;;;35.57;20.97;;;;;;;1.71;100.00;97302.13;5033066;28;20182;-68
2022/12/01 08:31:06;;;;;;;36.17;23.20;;;;;;;1.72;100.00;97305.53;5033114;28;20194;-68
2022/12/01 08:33:31;;;;;;;36.80;21.70;;;;;;;1.93;100.00;97304.13;5020154;28;20233;-68
2022/12/01 08:36:00;;;;;;;33.53;20.23;;;;;;;1.85;100.00;97298.91;5024306;28;20663;-68
2022/12/01 08:38:26;;;;;;;33.17;21.43;;;;;;;1.85;100.00;97301.50;5032531;28;20203;-68
2022/12/01 08:40:51;;;;;;;32.20;20.57;;;;;;;1.92;100.00;97288.75;5032398;28;20191;-69
2022/12/01 08:43:16;;;;;;;34.20;21.83;;;;;;;1.77;100.00;97296.34;5031085;28;20244;-68
2022/12/01 08:45:42;;;;;;;33.73;22.03;;;;;;;1.90;100.00;97296.66;5013694;28;20190;-68
2022/12/01 08:48:07;;;;;;;34.77;22.70;;;;;;;1.76;100.00;97306.81;5032113;28;20550;-68
2022/12/01 08:50:32;;;;;;;30.80;21.43;;;;;;;1.88;100.00;97303.78;5031745;28;20532;-68
2022/12/01 08:52:58;;;;;;;32.93;20.87;;;;;;;1.77;100.00;97313.63;5031918;28;20198;-68
2022/12/01 08:55:23;;;;;;;35.10;21.33;;;;;;;1.84;100.00;97312.03;5032094;28;20201;-68
2022/12/01 08:57:48;;;;;;;33.13;22.03;;;;;;;1.63;100.00;97296.94;5031650;28;20592;-68
2022/12/01 09:00:15;;;;;;;31.17;21.03;;;;;;;1.90;100.00;97303.59;5031927;28;20677;-68
2022/12/01 09:02:40;;;;;;;29.90;20.93;;;;;;;1.90;100.00;97301.84;5019071;28;20189;-68
2022/12/01 09:05:06;;;;;;;34.33;21.23;;;;;;;1.82;100.00;97306.19;5031993;28;20182;-68
2022/12/01 09:07:31;;;;;;;36.70;21.47;;;;;;;1.81;100.00;97300.22;5038237;28;20218;-68
2022/12/01 09:09:57;;;;;;;31.33;20.77;;;;;;;1.78;100.00;97304.91;5038169;28;20685;-68
2022/12/01 09:12:22;;;;;;;31.13;20.03;;;;;;;1.86;100.00;97305.72;5038296;28;20182;-68
2022/12/01 09:14:48;;;;;;;35.33;22.93;;;;;;;1.83;100.00;97300.06;5038415;28;20237;-68
2022/12/01 09:17:15;;;;;;;33.60;21.07;;;;;;;1.90;100.00;97309.59;5037164;28;20240;-68
2022/12/01 09:19:41;;;;;;;32.53;21.40;;;;;;;1.89;100.00;97307.19;5038111;28;20202;-68
2022/12/01 09:22:08;;;;;;;33.63;21.20;;;;;;;1.87;100.00;97311.69;5038351;28;20251;-68
2022/12/01 09:24:33;;;;;;;34.10;21.53;;;;;;;1.88;100.00;97319.28;5038803;28;20197;-68
2022/12/01 09:26:59;;;;;;;33.13;21.27;;;;;;;2.00;100.00;97317.22;5037679;28;20261;-68
2022/12/01 09:29:24;;;;;;;31.83;20.83;;;;;;;2.05;100.00;97317.53;5038277;28;20190;-69
2022/12/01 09:31:50;;;;;;;34.37;21.60;;;;;;;2.02;100.00;97315.25;5038057;28;20233;-68
2022/12/01 09:34:18;;;;;;;37.87;22.40;;;;;;;1.97;100.00;97315.75;5018877;28;20194;-68
2022/12/01 09:36:45;;;;;;;33.23;20.70;;;;;;;2.11;100.00;97313.50;5038778;28;20636;-68
2022/12/01 09:39:14;;;;;;;35.10;20.97;;;;;;;2.00;100.00;97312.84;5022768;28;20244;-67
2022/12/01 09:41:42;;;;;;;32.57;21.57;;;;;;;2.06;100.00;97316.59;5038441;28;20183;-67
2022/12/01 09:44:14;;;;;;;33.47;21.40;;;;;;;2.23;100.00;97304.47;5038212;28;20619;-67
2022/12/01 09:46:51;;;;;;;37.17;21.23;;;;;;;2.12;100.00;97309.97;5037817;28;20182;-67
2022/12/01 09:49:24;;;;;;;29.77;19.77;;;;;;;2.23;100.00;97310.41;5038323;28;20182;-67
2022/12/01 09:51:53;;;;;;;29.53;19.77;;;;;;;2.25;100.00;97308.50;5038138;28;20182;-67
2022/12/01 09:54:18;;;;;;;28.73;18.53;;;;;;;2.33;100.00;97300.75;5037174;28;20567;-68
2022/12/01 09:56:48;;;;;;;31.23;20.63;;;;;;;2.31;100.00;97310.44;5037892;28;20196;-68
2022/12/01 09:59:23;;;;;;;30.23;20.13;;;;;;;2.28;100.00;97304.78;5037721;28;20574;-68
2022/12/01 10:01:54;;;;;;;31.23;19.23;;;;;;;2.15;100.00;97307.03;5020009;28;20226;-68
2022/12/01 10:04:27;;;;;;;29.20;19.77;;;;;;;2.24;100.00;97304.28;5038034;28;20277;-68
2022/12/01 10:07:12;;;;;;;29.63;20.00;;;;;;;2.23;100.00;97299.31;5038252;28;20179;-68
2022/12/01 10:10:06;;;;;;;30.80;20.20;;;;;;;2.38;100.00;97292.50;5038232;28;20228;-68
2022/12/01 10:12:34;;;;;;;31.93;19.53;;;;;;;2.30;100.00;97293.28;5037874;28;20202;-67
2022/12/01 10:15:12;;;;;;;28.00;19.63;;;;;;;2.23;100.00;97286.38;5038370;28;20187;-67
2022/12/01 10:17:39;;;;;;;31.47;20.80;;;;;;;2.33;100.00;97287.00;5036546;28;20187;-67
2022/12/01 10:20:15;;;;;;;31.13;20.13;;;;;;;2.29;100.00;97278.75;5034737;28;20202;-67
2022/12/01 10:22:59;;;;;;;31.23;19.60;;;;;;;2.31;100.00;97281.19;5035238;28;20527;-67
2022/12/01 10:25:27;;;;;;;29.50;20.37;;;;;;;2.25;100.00;97274.06;5034867;28;20175;-67
2022/12/01 10:28:22;;;;;;;31.10;20.37;;;;;;;2.12;100.00;97271.19;5034657;28;20643;-67
2022/12/01 10:30:50;;;;;;;32.07;20.47;;;;;;;2.12;100.00;97274.53;5034677;28;20309;-67
2022/12/01 10:33:30;;;;;;;31.00;20.07;;;;;;;2.28;100.00;97271.16;5034480;28;20190;-67
2022/12/01 10:35:56;;;;;;;30.93;19.70;;;;;;;2.18;100.00;97266.16;5033954;28;20217;-68
2022/12/01 10:38:26;;;;;;;30.17;20.17;;;;;;;1.98;100.00;97281.19;5034848;28;20206;-67
2022/12/01 10:40:52;;;;;;;28.87;19.07;;;;;;;2.12;100.00;97268.59;5034950;28;20194;-68
2022/12/01 10:43:26;;;;;;;32.43;21.17;;;;;;;2.12;100.00;97263.44;5034518;28;20213;-68
2022/12/01 10:45:53;;;;;;;34.43;21.70;;;;;;;2.17;100.00;97264.56;5033968;28;20179;-67
2022/12/01 10:48:20;;;;;;;31.87;20.17;;;;;;;2.10;100.00;97268.75;5035165;28;20256;-68
2022/12/01 10:50:52;;;;;;;32.60;20.83;;;;;;;2.14;100.00;97258.88;5034968;28;20187;-68
2022/12/01 10:53:32;;;;;;;28.23;18.37;;;;;;;2.02;100.00;97260.97;5034216;28;20256;-68
2022/12/01 10:56:15;;;;;;;29.93;19.33;;;;;;;2.20;100.00;97256.47;5034483;28;20761;-69
2022/12/01 10:58:46;;;;;;;32.87;20.20;;;;;;;2.21;100.00;97257.28;5034575;28;20241;-68
2022/12/01 11:01:17;;;;;;;31.30;21.57;;;;;;;2.14;100.00;97262.28;5033635;28;20230;-68
2022/12/01 11:03:42;;;;;;;34.83;20.37;;;;;;;2.24;100.00;97260.31;5016346;28;20174;-69
2022/12/01 11:06:09;;;;;;;29.47;19.30;;;;;;;2.28;100.00;97261.63;5034402;28;20182;-68
2022/12/01 11:08:42;;;;;;;31.33;20.00;;;;;;;2.27;100.00;97254.84;5034410;28;20213;-68
2022/12/01 11:11:35;;;;;;;31.17;20.40;;;;;;;2.43;100.00;97254.03;5016408;28;20183;-68
2022/12/01 11:14:19;;;;;;;31.13;19.60;;;;;;;2.50;100.00;97257.56;5021273;28;20213;-68
2022/12/01 11:16:47;;;;;;;29.10;18.50;;;;;;;2.47;100.00;97250.94;5034158;28;20178;-68
2022/12/01 11:19:18;;;;;;;28.73;18.97;;;;;;;2.57;100.00;97237.00;5033757;28;20285;-68
2022/12/01 11:21:52;;;;;;;29.07;20.73;;;;;;;2.57;100.00;97237.81;5033696;28;20210;-68
2022/12/01 11:24:43;;;;;;;28.60;19.70;;;;;;;2.62;100.00;97235.53;5033905;28;20174;-68
2022/12/01 11:27:21;;;;;;;30.87;20.03;;;;;;;2.55;100.00;97233.78;5033788;28;20666;-68
2022/12/01 11:29:53;;;;;;;30.60;20.40;;;;;;;2.51;100.00;97231.50;5015590;28;20217;-68